Time;durP1;ratioP1;P1;durP2;ratioP2;P2;SDS_P1;SDS_P2;PMS_P1;PMS_P2;Temp;Humidity;BMP_temperature;BMP_pressure;BME280_temperature;BME280_humidity;BME280_pressure;Samples;Min_cycle;Max_cycle;Signal;HPM_P1;HPM_P2
2023/07/03 00:02:19;;;;;;;2.30;1.20;;;18.40;93.70;;;;;;5092258;28;20510;-67
2023/07/03 00:04:46;;;;;;;1.40;1.30;;;18.30;93.60;;;;;;5073656;28;20234;-67
2023/07/03 00:07:14;;;;;;;1.17;1.13;;;18.30;93.70;;;;;;5084435;28;20283;-67
2023/07/03 00:09:42;;;;;;;1.40;1.30;;;18.30;93.80;;;;;;5090950;28;20289;-67
2023/07/03 00:12:11;;;;;;;2.47;1.27;;;18.30;93.80;;;;;;5092672;28;20196;-68
2023/07/03 00:14:39;;;;;;;1.33;1.15;;;18.30;93.80;;;;;;5091497;28;20315;-67
2023/07/03 00:17:08;;;;;;;1.73;1.25;;;18.30;93.90;;;;;;5082342;28;20193;-67
2023/07/03 00:19:35;;;;;;;1.17;1.13;;;18.30;93.90;;;;;;5091570;28;20188;-67
2023/07/03 00:22:02;;;;;;;1.27;1.15;;;18.30;94.00;;;;;;5074612;28;20200;-67
2023/07/03 00:24:31;;;;;;;1.63;1.52;;;18.30;94.10;;;;;;5091282;28;20452;-67
2023/07/03 00:26:58;;;;;;;1.20;1.10;;;18.40;94.30;;;;;;5092446;28;20783;-67
2023/07/03 00:29:30;;;;;;;1.67;1.23;;;18.40;94.20;;;;;;5082498;28;20223;-66
2023/07/03 00:31:57;;;;;;;2.50;1.20;;;18.40;94.20;;;;;;5073982;28;20587;-67
2023/07/03 00:34:25;;;;;;;1.92;1.40;;;18.40;94.30;;;;;;5060211;28;20197;-67
2023/07/03 00:36:53;;;;;;;1.58;1.20;;;18.40;94.40;;;;;;5091668;28;20212;-67
2023/07/03 00:39:20;;;;;;;1.20;1.10;;;18.40;94.30;;;;;;5072252;28;20204;-67
2023/07/03 00:41:48;;;;;;;2.22;1.45;;;18.40;94.30;;;;;;5092375;28;20196;-67
2023/07/03 00:44:17;;;;;;;2.15;1.73;;;18.40;94.40;;;;;;5091318;28;20204;-67
2023/07/03 00:46:47;;;;;;;1.33;1.23;;;18.50;94.50;;;;;;5073126;28;20204;-67
2023/07/03 00:49:15;;;;;;;1.38;1.27;;;18.50;94.50;;;;;;5072479;28;20319;-66
2023/07/03 00:51:46;;;;;;;1.23;1.10;;;18.40;94.40;;;;;;5091749;28;20299;-68
2023/07/03 00:54:13;;;;;;;1.50;1.38;;;18.40;94.60;;;;;;5089771;28;20254;-67
2023/07/03 00:56:40;;;;;;;2.17;1.55;;;18.40;94.60;;;;;;5091844;28;20209;-67
2023/07/03 00:59:08;;;;;;;1.50;1.17;;;18.40;94.60;;;;;;5090607;28;20197;-66
2023/07/03 01:04:14;;;;;;;1.40;0.90;;;18.40;94.60;;;;;;5044381;28;20278;-66
2023/07/03 01:06:47;;;;;;;1.85;1.33;;;18.40;94.60;;;;;;5059839;28;20295;-66
2023/07/03 01:09:17;;;;;;;1.42;1.30;;;18.40;94.70;;;;;;5057051;28;20271;-66
2023/07/03 01:11:46;;;;;;;1.40;1.20;;;18.40;94.80;;;;;;5046091;28;20304;-66
2023/07/03 01:14:18;;;;;;;2.25;1.80;;;18.40;94.80;;;;;;5056451;28;20316;-67
2023/07/03 01:16:47;;;;;;;2.08;1.20;;;18.40;94.90;;;;;;5053596;28;20201;-67
2023/07/03 01:19:18;;;;;;;1.60;1.20;;;18.40;94.90;;;;;;5061964;28;20243;-67
2023/07/03 01:21:52;;;;;;;2.45;1.30;;;18.40;94.90;;;;;;5055384;28;20701;-67
2023/07/03 01:24:33;;;;;;;2.10;1.35;;;18.40;94.90;;;;;;5053398;28;20190;-66
2023/07/03 01:27:03;;;;;;;3.45;1.77;;;18.40;95.00;;;;;;5057885;28;20647;-66
2023/07/03 01:29:32;;;;;;;4.47;2.10;;;18.40;95.10;;;;;;5044276;28;20241;-66
2023/07/03 01:32:00;;;;;;;7.25;1.73;;;18.40;95.50;;;;;;5048175;28;20297;-66
2023/07/03 01:34:28;;;;;;;1.95;1.40;;;18.50;95.20;;;;;;5051600;28;20198;-66
2023/07/03 01:36:58;;;;;;;3.33;1.50;;;18.50;95.20;;;;;;5052212;28;20206;-65
2023/07/03 01:39:26;;;;;;;4.45;1.67;;;18.50;95.20;;;;;;5057374;28;20257;-67
2023/07/03 01:41:55;;;;;;;2.05;1.40;;;18.50;95.30;;;;;;5063092;28;20266;-66
2023/07/03 01:44:22;;;;;;;2.85;1.75;;;18.50;95.30;;;;;;5038136;28;20259;-66
2023/07/03 01:46:49;;;;;;;4.05;2.10;;;18.50;95.40;;;;;;5058245;28;20683;-65
2023/07/03 01:49:17;;;;;;;1.92;1.73;;;18.50;95.40;;;;;;5063233;28;20256;-66
2023/07/03 01:51:49;;;;;;;1.30;1.20;;;18.50;95.50;;;;;;5053401;28;20197;-65
2023/07/03 01:54:23;;;;;;;2.28;1.67;;;18.60;95.50;;;;;;5052190;28;20224;-65
2023/07/03 01:56:52;;;;;;;2.10;1.90;;;18.50;95.50;;;;;;5035145;28;20206;-66
2023/07/03 01:59:25;;;;;;;3.28;1.48;;;18.50;95.70;;;;;;5046629;28;20259;-66
2023/07/03 02:01:59;;;;;;;3.60;2.03;;;18.50;95.70;;;;;;5055617;28;20189;-66
2023/07/03 02:04:31;;;;;;;2.75;2.00;;;18.50;95.80;;;;;;5051786;28;20204;-66
2023/07/03 02:06:59;;;;;;;3.40;1.63;;;18.50;95.90;;;;;;5065901;28;20642;-66
2023/07/03 02:09:27;;;;;;;2.03;1.80;;;18.50;95.90;;;;;;5052203;28;20218;-67
2023/07/03 02:11:57;;;;;;;2.10;1.48;;;18.40;95.90;;;;;;5041204;28;20211;-66
2023/07/03 02:14:25;;;;;;;1.65;1.55;;;18.40;96.00;;;;;;5051825;28;20303;-66
2023/07/03 02:16:53;;;;;;;1.58;1.48;;;18.40;96.00;;;;;;5050271;28;20244;-65
2023/07/03 02:19:28;;;;;;;2.90;1.50;;;18.30;96.10;;;;;;5051659;28;20225;-66
2023/07/03 02:21:56;;;;;;;1.40;1.30;;;18.20;96.10;;;;;;5043893;28;20239;-66
2023/07/03 02:24:23;;;;;;;2.63;1.10;;;18.30;96.10;;;;;;5062646;28;20288;-65
2023/07/03 02:26:52;;;;;;;2.40;1.70;;;18.30;96.20;;;;;;5050727;28;20196;-64
2023/07/03 02:29:19;;;;;;;1.40;1.30;;;18.30;96.30;;;;;;5068259;28;20243;-66
2023/07/03 02:31:48;;;;;;;2.53;1.38;;;18.40;96.30;;;;;;5068077;28;20217;-66
2023/07/03 02:34:16;;;;;;;1.58;1.48;;;18.40;96.30;;;;;;5047942;28;20221;-67
2023/07/03 02:36:46;;;;;;;1.50;1.40;;;18.30;96.30;;;;;;5058522;28;20202;-66
2023/07/03 02:39:13;;;;;;;1.60;1.40;;;18.30;96.30;;;;;;5056153;28;20201;-67
2023/07/03 02:41:40;;;;;;;2.28;1.60;;;18.30;96.40;;;;;;5056365;28;20268;-66
2023/07/03 02:44:08;;;;;;;4.65;2.20;;;18.30;96.40;;;;;;5059110;28;20266;-65
2023/07/03 02:46:36;;;;;;;2.80;1.70;;;18.30;96.40;;;;;;5050442;28;20545;-65
2023/07/03 02:49:04;;;;;;;2.13;1.80;;;18.30;96.40;;;;;;5056482;28;20210;-65
2023/07/03 02:51:32;;;;;;;1.88;1.77;;;18.30;96.50;;;;;;5032935;28;20217;-65
2023/07/03 02:54:04;;;;;;;1.40;1.30;;;18.30;96.50;;;;;;5033525;28;20217;-66
2023/07/03 02:56:32;;;;;;;2.97;1.33;;;18.30;96.50;;;;;;5035370;28;20206;-66
2023/07/03 02:58:59;;;;;;;4.47;1.98;;;18.30;96.60;;;;;;5037643;28;20221;-66
2023/07/03 03:01:31;;;;;;;4.05;2.22;;;18.20;96.60;;;;;;5050494;28;20655;-66
2023/07/03 03:03:59;;;;;;;3.47;1.83;;;18.20;96.60;;;;;;5046366;28;20309;-67
2023/07/03 03:06:28;;;;;;;2.42;1.95;;;18.20;96.60;;;;;;5054632;28;20213;-66
2023/07/03 03:08:55;;;;;;;2.63;2.10;;;18.10;96.60;;;;;;5046320;28;20556;-66
2023/07/03 03:11:22;;;;;;;3.25;2.00;;;18.20;96.80;;;;;;5039202;28;20225;-66
2023/07/03 03:13:53;;;;;;;3.20;1.80;;;18.10;96.70;;;;;;5047658;28;20194;-67
2023/07/03 03:16:20;;;;;;;3.78;1.75;;;18.10;96.80;;;;;;5057084;28;20208;-66
2023/07/03 03:18:47;;;;;;;3.85;2.10;;;18.00;96.80;;;;;;5047047;28;20309;-66
2023/07/03 03:21:15;;;;;;;1.70;1.60;;;18.00;96.90;;;;;;5051073;28;20251;-66
2023/07/03 03:23:46;;;;;;;1.70;1.60;;;17.90;96.90;;;;;;5052843;28;20204;-67
2023/07/03 03:26:13;;;;;;;3.17;1.63;;;17.90;97.00;;;;;;5068094;28;20194;-66
2023/07/03 03:28:40;;;;;;;1.55;1.30;;;17.90;97.10;;;;;;5066792;28;20300;-66
2023/07/03 03:31:09;;;;;;;2.78;1.70;;;17.90;97.10;;;;;;5053780;28;20610;-66
2023/07/03 03:33:40;;;;;;;3.22;1.60;;;18.00;97.20;;;;;;5044296;28;20236;-66
2023/07/03 03:36:08;;;;;;;1.77;1.67;;;17.90;97.10;;;;;;5038602;28;20691;-66
2023/07/03 03:38:35;;;;;;;2.00;1.80;;;18.00;97.20;;;;;;5053363;28;20254;-67
2023/07/03 03:41:05;;;;;;;3.45;1.50;;;17.90;97.10;;;;;;5049022;28;20363;-67
2023/07/03 03:43:36;;;;;;;1.55;1.45;;;18.00;97.20;;;;;;5041661;28;20205;-66
2023/07/03 03:46:03;;;;;;;3.05;1.52;;;18.00;97.20;;;;;;5047780;28;20212;-67
2023/07/03 03:48:33;;;;;;;2.92;1.58;;;18.00;97.20;;;;;;5067405;28;20640;-66
2023/07/03 03:51:03;;;;;;;4.93;1.83;;;18.00;97.20;;;;;;5049593;28;20229;-66
2023/07/03 03:53:32;;;;;;;1.67;1.58;;;18.00;97.20;;;;;;5046248;28;20676;-66
2023/07/03 03:55:59;;;;;;;2.17;1.95;;;18.00;97.20;;;;;;5062024;28;20302;-65
2023/07/03 03:58:30;;;;;;;4.15;2.03;;;18.10;97.10;;;;;;5051124;28;20260;-66
2023/07/03 04:00:57;;;;;;;4.65;1.90;;;18.10;97.00;;;;;;5044946;28;20251;-67
2023/07/03 04:03:24;;;;;;;4.43;2.20;;;18.10;97.00;;;;;;5046863;28;20253;-66
2023/07/03 04:05:51;;;;;;;2.17;2.00;;;18.10;97.00;;;;;;5057318;28;20228;-66
2023/07/03 04:08:19;;;;;;;3.83;2.30;;;18.20;97.10;;;;;;5052701;28;20274;-66
2023/07/03 04:10:46;;;;;;;2.75;1.98;;;18.20;97.10;;;;;;5054097;28;20634;-66
2023/07/03 04:13:13;;;;;;;3.25;2.22;;;18.20;97.00;;;;;;5062829;28;20205;-66
2023/07/03 04:15:58;;;;;;;2.15;1.90;;;18.20;97.00;;;;;;5063291;28;20292;-65
2023/07/03 04:18:26;;;;;;;3.55;2.10;;;18.10;96.80;;;;;;5066151;28;20197;-66
2023/07/03 04:20:53;;;;;;;1.50;1.40;;;18.20;96.70;;;;;;5054267;28;20281;-66
2023/07/03 04:23:20;;;;;;;2.75;1.83;;;18.20;96.60;;;;;;5053019;28;20326;-65
2023/07/03 04:25:48;;;;;;;4.50;2.50;;;18.20;96.50;;;;;;5063669;28;20606;-66
2023/07/03 04:28:17;;;;;;;2.63;2.03;;;18.20;96.30;;;;;;5049860;28;20214;-66
2023/07/03 04:30:44;;;;;;;3.35;1.80;;;18.30;96.30;;;;;;5045013;28;20213;-66
2023/07/03 04:33:13;;;;;;;2.45;1.77;;;18.30;96.30;;;;;;5051513;28;20194;-66
2023/07/03 04:35:40;;;;;;;4.97;2.55;;;18.30;96.20;;;;;;5057079;28;20271;-66
2023/07/03 04:38:07;;;;;;;2.67;2.45;;;18.40;96.40;;;;;;5069018;28;20225;-66
2023/07/03 04:40:35;;;;;;;6.25;2.85;;;18.40;95.80;;;;;;5055114;28;20189;-66
2023/07/03 04:43:02;;;;;;;2.38;2.15;;;18.40;95.70;;;;;;5036752;28;20644;-66
2023/07/03 04:45:31;;;;;;;4.65;2.53;;;18.40;95.70;;;;;;5036012;28;20328;-67
2023/07/03 04:47:58;;;;;;;2.65;2.22;;;18.50;95.70;;;;;;5058290;28;20213;-66
2023/07/03 04:50:27;;;;;;;5.97;2.50;;;18.50;95.50;;;;;;5061586;28;20215;-67
2023/07/03 04:52:54;;;;;;;4.07;2.22;;;18.50;95.40;;;;;;5050121;28;20205;-67
2023/07/03 04:55:22;;;;;;;4.68;2.08;;;18.50;95.30;;;;;;5060818;28;20218;-67
2023/07/03 04:57:49;;;;;;;4.75;2.58;;;18.60;95.30;;;;;;5048936;28;20296;-66
2023/07/03 05:00:19;;;;;;;2.83;2.25;;;18.60;95.20;;;;;;5059088;28;20225;-67
2023/07/03 05:02:49;;;;;;;2.10;1.83;;;18.70;95.30;;;;;;5065099;28;20221;-65
2023/07/03 05:05:17;;;;;;;8.10;2.90;;;18.70;95.20;;;;;;5047007;28;20202;-66
2023/07/03 05:07:47;;;;;;;6.05;2.55;;;18.70;95.00;;;;;;5063638;28;20224;-66
2023/07/03 05:10:16;;;;;;;8.10;3.05;;;18.70;94.60;;;;;;5045652;28;20659;-65
2023/07/03 05:12:43;;;;;;;3.50;2.63;;;18.70;94.10;;;;;;5062964;28;20573;-65
2023/07/03 05:15:13;;;;;;;9.00;2.80;;;18.70;94.30;;;;;;5055983;28;20277;-65
2023/07/03 05:17:40;;;;;;;3.65;2.13;;;18.70;93.40;;;;;;5064768;28;20231;-65
2023/07/03 05:20:11;;;;;;;8.15;2.70;;;18.70;93.20;;;;;;5054680;28;20235;-66
2023/07/03 05:22:40;;;;;;;2.97;2.20;;;18.70;93.20;;;;;;5055896;28;20202;-66
2023/07/03 05:25:10;;;;;;;3.55;2.33;;;18.70;93.10;;;;;;5052611;28;20250;-66
2023/07/03 05:27:38;;;;;;;2.63;2.42;;;18.70;92.90;;;;;;5060741;28;20613;-65
2023/07/03 05:30:06;;;;;;;6.95;2.45;;;18.80;92.90;;;;;;5049094;28;20239;-65
2023/07/03 05:32:33;;;;;;;2.83;2.38;;;18.70;92.70;;;;;;5065851;28;20201;-65
2023/07/03 05:35:02;;;;;;;3.63;2.30;;;18.80;92.40;;;;;;5045164;28;20277;-65
2023/07/03 05:37:29;;;;;;;2.50;2.00;;;18.80;92.30;;;;;;5067931;28;20197;-65
2023/07/03 05:39:56;;;;;;;3.08;1.90;;;18.80;92.30;;;;;;5059784;28;20649;-65
2023/07/03 05:42:24;;;;;;;4.57;2.42;;;18.80;92.20;;;;;;5059858;28;20204;-64
2023/07/03 05:44:51;;;;;;;4.00;2.40;;;18.90;91.90;;;;;;5048854;28;20201;-65
2023/07/03 05:47:19;;;;;;;3.13;2.25;;;18.90;91.40;;;;;;5059111;28;20197;-66
2023/07/03 05:49:48;;;;;;;4.95;2.42;;;18.90;91.50;;;;;;5056712;28;20242;-66
2023/07/03 05:52:15;;;;;;;3.17;2.25;;;19.00;91.30;;;;;;5054491;28;20233;-66
2023/07/03 05:54:42;;;;;;;3.35;2.22;;;19.00;91.00;;;;;;5051963;28;20267;-66
2023/07/03 05:57:11;;;;;;;5.47;2.42;;;19.00;90.90;;;;;;5051866;28;20212;-66
2023/07/03 05:59:40;;;;;;;5.88;2.50;;;19.10;90.80;;;;;;5061751;28;20197;-66
2023/07/03 06:02:10;;;;;;;7.32;2.55;;;19.10;90.70;;;;;;5065312;28;20716;-66
2023/07/03 06:04:38;;;;;;;6.28;2.20;;;19.10;90.50;;;;;;5061655;28;20221;-66
2023/07/03 06:07:06;;;;;;;3.15;2.50;;;19.10;90.10;;;;;;5045680;28;20626;-66
2023/07/03 06:09:34;;;;;;;6.18;2.67;;;19.20;90.20;;;;;;5046999;28;20288;-66
2023/07/03 06:12:02;;;;;;;2.78;2.03;;;19.20;90.20;;;;;;5060209;28;20230;-66
2023/07/03 06:14:30;;;;;;;3.63;2.17;;;19.30;90.20;;;;;;5048387;28;20280;-66
2023/07/03 06:16:59;;;;;;;2.15;1.80;;;19.30;90.00;;;;;;5059943;28;20255;-66
2023/07/03 06:19:27;;;;;;;2.88;1.90;;;19.30;90.00;;;;;;5040233;28;20318;-66
2023/07/03 06:21:54;;;;;;;4.82;2.15;;;19.40;90.00;;;;;;5056756;28;20284;-66
2023/07/03 06:24:22;;;;;;;4.10;2.00;;;19.40;87.40;;;;;;5059117;28;20213;-66
2023/07/03 06:26:49;;;;;;;3.55;1.95;;;19.40;86.90;;;;;;5037484;28;20206;-67
2023/07/03 06:29:16;;;;;;;6.38;2.13;;;19.40;85.90;;;;;;5054428;28;20607;-67
2023/07/03 06:31:43;;;;;;;2.08;1.88;;;19.40;84.80;;;;;;5056371;28;20213;-66
2023/07/03 06:34:11;;;;;;;3.22;1.92;;;19.40;85.20;;;;;;5060402;28;20196;-67
2023/07/03 06:36:38;;;;;;;4.68;2.15;;;19.40;85.10;;;;;;5057692;28;20186;-67
2023/07/03 06:39:07;;;;;;;3.70;2.00;;;19.30;85.10;;;;;;5059123;28;20651;-66
2023/07/03 06:41:36;;;;;;;2.33;1.70;;;19.50;83.50;;;;;;5041279;28;20557;-66
2023/07/03 06:44:04;;;;;;;3.75;2.10;;;19.50;83.60;;;;;;5060133;28;20247;-66
2023/07/03 06:46:31;;;;;;;8.77;2.42;;;19.60;83.50;;;;;;5056967;28;20201;-66
2023/07/03 06:48:59;;;;;;;5.53;2.15;;;19.60;82.00;;;;;;5052659;28;20216;-66
2023/07/03 06:51:27;;;;;;;5.15;1.80;;;19.60;80.60;;;;;;5055532;28;20286;-66
2023/07/03 06:53:54;;;;;;;2.55;1.80;;;19.60;80.70;;;;;;5052636;28;20198;-66
2023/07/03 06:56:22;;;;;;;3.42;2.17;;;19.60;80.70;;;;;;5060277;28;20280;-66
2023/07/03 06:58:50;;;;;;;4.28;2.10;;;19.70;80.50;;;;;;5056998;28;20201;-66
2023/07/03 07:01:21;;;;;;;5.20;2.42;;;19.70;80.50;;;;;;5046717;28;20255;-66
2023/07/03 07:03:48;;;;;;;4.22;2.22;;;19.80;79.80;;;;;;5066449;28;20237;-66
2023/07/03 07:06:18;;;;;;;2.97;2.10;;;19.80;78.70;;;;;;5051154;28;20718;-66
2023/07/03 07:08:46;;;;;;;7.13;1.92;;;19.80;78.40;;;;;;5055979;28;20194;-66
2023/07/03 07:11:17;;;;;;;7.72;2.15;;;19.80;77.00;;;;;;5069038;28;20734;-66
2023/07/03 07:13:46;;;;;;;4.93;1.75;;;19.80;76.10;;;;;;5066540;28;20261;-66
2023/07/03 07:16:14;;;;;;;10.48;1.90;;;19.80;76.60;;;;;;5062519;28;20296;-67
2023/07/03 07:18:41;;;;;;;2.83;2.10;;;19.80;76.30;;;;;;5060573;28;20616;-67
2023/07/03 07:21:09;;;;;;;3.03;2.08;;;19.90;76.20;;;;;;5060340;28;20548;-66
2023/07/03 07:23:36;;;;;;;2.05;1.70;;;19.90;76.30;;;;;;5062530;28;20653;-67
2023/07/03 07:26:05;;;;;;;3.45;1.80;;;19.90;76.40;;;;;;5065885;28;20197;-66
2023/07/03 07:28:32;;;;;;;6.57;2.28;;;20.00;76.30;;;;;;5057790;28;20193;-65
2023/07/03 07:30:59;;;;;;;3.67;2.10;;;20.00;74.90;;;;;;5066708;28;20668;-66
2023/07/03 07:33:26;;;;;;;6.53;2.53;;;20.00;74.50;;;;;;5062379;28;20277;-66
2023/07/03 07:35:53;;;;;;;4.10;1.92;;;20.10;74.70;;;;;;5048585;28;20740;-66
2023/07/03 07:38:21;;;;;;;3.70;2.17;;;20.10;74.90;;;;;;5062511;28;20308;-66
2023/07/03 07:40:49;;;;;;;4.20;2.10;;;20.20;75.10;;;;;;5066220;28;20305;-66
2023/07/03 07:43:18;;;;;;;4.07;2.17;;;20.20;74.10;;;;;;5056160;28;20212;-66
2023/07/03 07:45:53;;;;;;;3.08;2.30;;;20.30;74.80;;;;;;5053667;28;20198;-65
2023/07/03 07:48:20;;;;;;;2.28;1.92;;;20.40;75.10;;;;;;5059052;28;20672;-65
2023/07/03 07:50:47;;;;;;;5.03;1.90;;;20.50;75.00;;;;;;5058046;28;20193;-66
2023/07/03 07:53:14;;;;;;;6.00;2.30;;;20.50;74.70;;;;;;5057209;28;20300;-66
2023/07/03 07:55:41;;;;;;;1.83;1.67;;;20.60;74.00;;;;;;5063290;28;20213;-66
2023/07/03 07:58:08;;;;;;;8.57;2.45;;;20.70;73.60;;;;;;5058791;28;20652;-67
2023/07/03 08:00:37;;;;;;;3.80;2.60;;;20.70;72.60;;;;;;5069571;28;20220;-67
2023/07/03 08:03:04;;;;;;;3.72;2.30;;;20.70;72.20;;;;;;5050552;28;20885;-66
2023/07/03 08:05:32;;;;;;;6.22;2.40;;;20.70;72.00;;;;;;5068097;28;20255;-66
2023/07/03 08:08:00;;;;;;;8.23;2.55;;;20.70;70.90;;;;;;5068272;28;20221;-66
2023/07/03 08:10:27;;;;;;;3.15;1.83;;;20.70;71.10;;;;;;5064455;28;20270;-66
2023/07/03 08:12:55;;;;;;;7.97;2.83;;;20.80;71.00;;;;;;5059247;28;20243;-66
2023/07/03 08:15:22;;;;;;;5.22;2.13;;;20.80;69.40;;;;;;5038213;28;20205;-66
2023/07/03 08:17:50;;;;;;;5.65;2.30;;;20.90;68.40;;;;;;5064507;28;20193;-66
2023/07/03 08:20:17;;;;;;;3.55;1.90;;;20.90;68.30;;;;;;5069622;28;20221;-66
2023/07/03 08:22:45;;;;;;;3.22;1.90;;;21.00;68.30;;;;;;5066733;28;20189;-66
2023/07/03 08:25:12;;;;;;;1.77;1.67;;;21.10;68.00;;;;;;5065096;28;20228;-66
2023/07/03 08:27:39;;;;;;;2.35;1.65;;;21.10;68.40;;;;;;5061991;28;20243;-66
2023/07/03 08:30:07;;;;;;;5.20;2.72;;;21.20;69.00;;;;;;5057403;28;20194;-65
2023/07/03 08:32:34;;;;;;;4.30;2.10;;;21.30;68.20;;;;;;5044319;28;20238;-66
2023/07/03 08:35:03;;;;;;;2.67;2.38;;;21.30;68.30;;;;;;5054845;28;20331;-66
2023/07/03 08:37:30;;;;;;;4.72;2.13;;;21.30;67.40;;;;;;5056155;28;20197;-67
2023/07/03 08:39:57;;;;;;;5.28;2.13;;;21.40;67.40;;;;;;5062650;28;20542;-66
2023/07/03 08:42:30;;;;;;;6.13;2.17;;;21.50;66.20;;;;;;5034627;28;20197;-67
2023/07/03 08:44:59;;;;;;;3.53;2.25;;;21.50;65.40;;;;;;5033069;28;20217;-67
2023/07/03 08:47:30;;;;;;;4.20;2.35;;;21.50;65.30;;;;;;5051871;28;20283;-66
2023/07/03 08:50:00;;;;;;;4.63;2.08;;;21.50;65.70;;;;;;5049780;28;20205;-66
2023/07/03 08:52:42;;;;;;;4.00;2.10;;;21.60;66.30;;;;;;5051229;28;20221;-66
2023/07/03 08:55:14;;;;;;;4.57;2.28;;;21.70;66.00;;;;;;5056295;28;20583;-67
2023/07/03 08:57:41;;;;;;;8.30;2.40;;;21.80;65.60;;;;;;5065130;28;20193;-67
2023/07/03 09:00:11;;;;;;;5.47;2.28;;;21.80;64.10;;;;;;5066869;28;20201;-66
2023/07/03 09:02:45;;;;;;;6.38;2.33;;;21.80;64.60;;;;;;5065261;28;20325;-66
2023/07/03 09:05:30;;;;;;;4.30;2.53;;;21.90;65.00;;;;;;5067132;28;20903;-66
2023/07/03 09:08:02;;;;;;;5.05;2.40;;;21.80;65.30;;;;;;5060374;28;20275;-67
2023/07/03 09:10:34;;;;;;;3.45;1.85;;;21.80;65.50;;;;;;5062469;28;20330;-66
2023/07/03 09:13:07;;;;;;;3.33;1.90;;;21.80;65.90;;;;;;5053017;28;20205;-66
2023/07/03 09:15:40;;;;;;;3.83;2.00;;;21.80;65.60;;;;;;5041003;28;20984;-66
2023/07/03 09:18:13;;;;;;;7.35;2.60;;;21.80;64.10;;;;;;5055161;28;20190;-66
2023/07/03 09:20:42;;;;;;;9.00;2.35;;;21.70;63.70;;;;;;5043677;28;20339;-67
2023/07/03 09:23:17;;;;;;;6.38;2.35;;;21.70;62.60;;;;;;5055534;28;20193;-65
2023/07/03 09:25:50;;;;;;;4.43;2.38;;;21.60;62.80;;;;;;5053971;28;20285;-66
2023/07/03 09:28:18;;;;;;;3.92;2.50;;;21.60;63.10;;;;;;5058297;28;20583;-66
2023/07/03 09:30:45;;;;;;;5.55;2.42;;;21.60;63.30;;;;;;5052686;28;20755;-65
2023/07/03 09:33:12;;;;;;;3.80;2.45;;;21.60;63.80;;;;;;5055095;28;20244;-66
2023/07/03 09:35:41;;;;;;;10.40;2.67;;;21.60;64.30;;;;;;5049400;28;20247;-66
2023/07/03 09:38:15;;;;;;;8.57;3.10;;;21.60;64.20;;;;;;5056614;28;20287;-66
2023/07/03 09:40:44;;;;;;;4.15;2.33;;;21.60;64.90;;;;;;5056239;28;20259;-68
2023/07/03 09:43:18;;;;;;;3.25;2.15;;;21.50;65.00;;;;;;5054284;28;20186;-67
2023/07/03 09:45:46;;;;;;;2.72;2.20;;;21.50;65.20;;;;;;5052773;28;20252;-66
2023/07/03 09:48:19;;;;;;;4.40;2.20;;;21.50;65.10;;;;;;5041115;28;20208;-66
2023/07/03 09:50:46;;;;;;;3.55;2.33;;;21.50;65.30;;;;;;5056778;28;20282;-67
2023/07/03 09:53:20;;;;;;;5.43;2.55;;;21.60;65.50;;;;;;5049583;28;20267;-67
2023/07/03 09:55:54;;;;;;;21.20;2.92;;;21.70;65.70;;;;;;5048315;28;20229;-67
2023/07/03 09:58:26;;;;;;;5.93;2.40;;;21.70;65.10;;;;;;5056908;28;20533;-67
2023/07/03 10:00:55;;;;;;;6.55;2.40;;;21.70;64.60;;;;;;5061273;28;20197;-67
2023/07/03 10:03:27;;;;;;;6.10;2.75;;;21.70;64.40;;;;;;5062728;28;20274;-67
2023/07/03 10:05:54;;;;;;;5.88;2.28;;;21.70;63.70;;;;;;5067487;28;20189;-67
2023/07/03 10:08:25;;;;;;;2.83;2.05;;;21.70;63.70;;;;;;5057591;28;20213;-68
2023/07/03 10:10:56;;;;;;;5.97;2.08;;;21.70;63.90;;;;;;5048423;28;20202;-68
2023/07/03 10:13:28;;;;;;;3.92;2.45;;;21.80;64.00;;;;;;5048063;28;20206;-67
2023/07/03 10:15:56;;;;;;;3.85;2.47;;;21.90;64.10;;;;;;5054578;28;20242;-68
2023/07/03 10:18:28;;;;;;;3.80;2.60;;;22.00;64.00;;;;;;5064458;28;20205;-67
2023/07/03 10:20:56;;;;;;;5.95;2.10;;;22.10;64.20;;;;;;5052516;28;20228;-67
2023/07/03 10:23:27;;;;;;;5.07;2.40;;;22.20;63.50;;;;;;5061928;28;20193;-68
2023/07/03 10:25:58;;;;;;;7.82;3.20;;;22.30;63.50;;;;;;5064655;28;20234;-68
2023/07/03 10:28:31;;;;;;;4.13;2.55;;;22.40;63.00;;;;;;5055882;28;20205;-69
2023/07/03 10:31:02;;;;;;;2.70;2.10;;;22.40;63.10;;;;;;5035309;28;20229;-68
2023/07/03 10:33:34;;;;;;;3.95;2.55;;;22.50;63.30;;;;;;5055141;28;20205;-67
2023/07/03 10:36:06;;;;;;;4.75;2.47;;;22.50;63.60;;;;;;5040640;28;20201;-68
2023/07/03 10:38:42;;;;;;;6.05;2.55;;;22.50;63.50;;;;;;5035155;28;20206;-68
2023/07/03 10:41:15;;;;;;;8.23;2.53;;;22.60;63.20;;;;;;5060664;28;20203;-67
2023/07/03 10:43:49;;;;;;;3.75;2.65;;;22.60;62.90;;;;;;5057958;28;20197;-67
2023/07/03 10:46:24;;;;;;;3.70;2.70;;;22.50;62.30;;;;;;5060964;28;20201;-67
2023/07/03 10:48:54;;;;;;;2.63;2.05;;;22.60;62.80;;;;;;5055268;28;20199;-68
2023/07/03 10:51:31;;;;;;;5.25;2.35;;;22.60;63.20;;;;;;5056354;28;20607;-69
2023/07/03 10:54:05;;;;;;;4.13;2.78;;;22.60;63.00;;;;;;5059847;28;20564;-68
2023/07/03 10:56:39;;;;;;;10.10;3.45;;;22.60;62.80;;;;;;5055044;28;20197;-68
2023/07/03 10:59:13;;;;;;;7.78;3.13;;;22.60;62.20;;;;;;5058499;28;20188;-68
2023/07/03 11:01:48;;;;;;;4.78;2.95;;;22.60;62.20;;;;;;5052862;28;20204;-68
2023/07/03 11:04:21;;;;;;;3.70;2.33;;;22.60;61.80;;;;;;5047650;28;20330;-68
2023/07/03 11:06:57;;;;;;;3.13;2.30;;;22.60;62.20;;;;;;5061495;28;20193;-68
2023/07/03 11:09:33;;;;;;;2.38;2.13;;;22.60;62.60;;;;;;5057067;28;20524;-67
2023/07/03 11:12:06;;;;;;;3.78;2.08;;;22.70;62.50;;;;;;5059818;28;20205;-67
2023/07/03 11:14:40;;;;;;;4.82;2.55;;;22.70;62.40;;;;;;5035443;28;20275;-67
2023/07/03 11:17:13;;;;;;;3.65;2.50;;;22.60;61.90;;;;;;5056537;28;20258;-66
2023/07/03 11:19:51;;;;;;;4.13;2.60;;;22.60;62.10;;;;;;5051640;28;20209;-67
2023/07/03 11:22:23;;;;;;;4.30;2.35;;;22.50;62.20;;;;;;5059713;28;20259;-67
2023/07/03 11:25:03;;;;;;;3.42;2.42;;;22.50;62.40;;;;;;5062720;28;20201;-66
2023/07/03 11:27:36;;;;;;;5.00;2.50;;;22.40;62.50;;;;;;5059607;28;20197;-66
2023/07/03 11:30:04;;;;;;;2.88;2.25;;;22.40;62.50;;;;;;5059615;28;20230;-66
2023/07/03 11:32:34;;;;;;;2.80;2.30;;;22.30;62.60;;;;;;5063236;28;20267;-67
2023/07/03 11:35:02;;;;;;;4.00;2.58;;;22.30;62.40;;;;;;5058838;28;20212;-67
2023/07/03 11:37:43;;;;;;;6.00;2.40;;;22.20;62.00;;;;;;5062657;28;20622;-66
2023/07/03 11:40:33;;;;;;;4.00;2.53;;;22.30;62.20;;;;;;5060100;28;20205;-66
2023/07/03 11:43:22;;;;;;;2.33;2.05;;;22.30;62.40;;;;;;5055993;28;20615;-67
2023/07/03 11:46:10;;;;;;;2.38;1.95;;;22.40;62.70;;;;;;5059885;28;20269;-66
2023/07/03 11:48:48;;;;;;;3.47;2.20;;;22.40;62.70;;;;;;5052196;28;20208;-65
2023/07/03 11:51:16;;;;;;;4.70;2.47;;;22.60;63.10;;;;;;5054958;28;20358;-66
2023/07/03 11:53:47;;;;;;;2.50;2.30;;;22.40;63.10;;;;;;5056449;28;20217;-66
2023/07/03 11:56:48;;;;;;;2.83;2.35;;;22.40;63.20;;;;;;5052578;28;20595;-67
2023/07/03 11:59:25;;;;;;;2.67;2.40;;;22.50;63.60;;;;;;5058734;28;20212;-66
2023/07/03 12:01:54;;;;;;;8.82;2.80;;;22.50;63.70;;;;;;5054506;28;20200;-68
2023/07/03 12:04:56;;;;;;;4.32;2.78;;;22.60;63.90;;;;;;5050841;28;20483;-66
2023/07/03 12:07:48;;;;;;;4.50;2.30;;;22.70;63.90;;;;;;5042475;28;20381;-66
2023/07/03 12:10:57;;;;;;;4.43;2.42;;;22.60;63.50;;;;;;5052594;28;20201;-65
2023/07/03 12:13:45;;;;;;;3.42;2.47;;;22.60;63.40;;;;;;5049828;28;20623;-66
2023/07/03 12:16:16;;;;;;;3.45;2.53;;;22.60;63.90;;;;;;5051269;28;20277;-66
2023/07/03 12:18:44;;;;;;;2.50;2.28;;;22.60;64.00;;;;;;5063317;28;20535;-66
2023/07/03 12:21:12;;;;;;;5.68;2.72;;;22.60;64.00;;;;;;5055775;28;20193;-66
2023/07/03 12:23:41;;;;;;;4.32;2.75;;;22.60;64.30;;;;;;5065365;28;20627;-67
2023/07/03 12:26:11;;;;;;;3.75;2.60;;;22.50;64.30;;;;;;5065047;28;20643;-67
2023/07/03 12:28:41;;;;;;;2.40;2.20;;;22.50;64.50;;;;;;5054781;28;20686;-66
2023/07/03 12:31:18;;;;;;;2.70;2.50;;;22.50;64.80;;;;;;5045272;28;20661;-66
2023/07/03 12:33:53;;;;;;;4.65;2.80;;;22.40;64.80;;;;;;5061466;28;20749;-68
2023/07/03 12:36:22;;;;;;;2.20;2.00;;;22.40;65.10;;;;;;5056912;28;20214;-67
2023/07/03 12:38:49;;;;;;;2.20;2.00;;;22.40;65.90;;;;;;5033395;28;20206;-67
2023/07/03 12:41:23;;;;;;;6.38;2.83;;;22.40;65.30;;;;;;5054349;28;20189;-66
2023/07/03 12:43:52;;;;;;;5.80;2.50;;;22.40;65.20;;;;;;5042375;28;20270;-67
2023/07/03 12:46:31;;;;;;;3.67;2.60;;;22.30;65.10;;;;;;5057088;28;20670;-65
2023/07/03 12:49:03;;;;;;;2.85;2.42;;;22.20;65.20;;;;;;5052441;28;20285;-67
2023/07/03 12:51:35;;;;;;;5.45;2.40;;;22.30;65.50;;;;;;5063374;28;20204;-67
2023/07/03 12:54:02;;;;;;;2.97;2.67;;;22.20;65.70;;;;;;5052430;28;20201;-67
2023/07/03 12:56:29;;;;;;;3.95;2.75;;;22.30;66.50;;;;;;5062927;28;20317;-67
2023/07/03 12:58:58;;;;;;;7.63;2.90;;;22.40;65.80;;;;;;5056958;28;20197;-66
2023/07/03 13:01:26;;;;;;;5.88;2.90;;;22.50;66.00;;;;;;5061005;28;20201;-66
2023/07/03 13:03:53;;;;;;;5.35;3.03;;;22.70;65.20;;;;;;5065903;28;20228;-66